sensor_id;sensor_type;location;lat;lon;timestamp;pressure;altitude;pressure_sealevel;temperature;humidity
65010;BME280;51556;50.002;22.014;2022-07-09T00:00:02;99739.84;;;17.83;71.48
65010;BME280;51556;50.002;22.014;2022-07-09T00:02:28;99735.69;;;17.81;71.35
65010;BME280;51556;50.002;22.014;2022-07-09T00:04:53;99739.70;;;17.79;71.25
65010;BME280;51556;50.002;22.014;2022-07-09T00:07:19;99739.08;;;17.77;71.43
65010;BME280;51556;50.002;22.014;2022-07-09T00:09:44;99744.19;;;17.71;71.71
65010;BME280;51556;50.002;22.014;2022-07-09T00:12:10;99741.96;;;17.61;71.76
65010;BME280;51556;50.002;22.014;2022-07-09T00:14:35;99740.02;;;17.57;72.04
65010;BME280;51556;50.002;22.014;2022-07-09T00:17:01;99746.44;;;17.56;71.95
65010;BME280;51556;50.002;22.014;2022-07-09T00:19:27;99744.69;;;17.60;71.84
65010;BME280;51556;50.002;22.014;2022-07-09T00:21:52;99746.20;;;17.62;71.74
65010;BME280;51556;50.002;22.014;2022-07-09T00:24:18;99742.83;;;17.61;71.80
65010;BME280;51556;50.002;22.014;2022-07-09T00:26:43;99742.42;;;17.58;71.83
65010;BME280;51556;50.002;22.014;2022-07-09T00:29:09;99744.78;;;17.58;72.00
65010;BME280;51556;50.002;22.014;2022-07-09T00:31:35;99743.87;;;17.58;71.87
65010;BME280;51556;50.002;22.014;2022-07-09T00:34:00;99741.88;;;17.59;71.82
65010;BME280;51556;50.002;22.014;2022-07-09T00:36:26;99742.06;;;17.59;71.65
65010;BME280;51556;50.002;22.014;2022-07-09T00:38:51;99738.55;;;17.57;71.62
65010;BME280;51556;50.002;22.014;2022-07-09T00:41:17;99738.11;;;17.56;71.58
65010;BME280;51556;50.002;22.014;2022-07-09T00:43:47;99740.90;;;17.50;72.01
65010;BME280;51556;50.002;22.014;2022-07-09T00:46:14;99743.30;;;17.37;72.36
65010;BME280;51556;50.002;22.014;2022-07-09T00:48:40;99742.36;;;17.34;72.15
65010;BME280;51556;50.002;22.014;2022-07-09T00:51:05;99740.06;;;17.33;72.12
65010;BME280;51556;50.002;22.014;2022-07-09T00:53:32;99740.20;;;17.34;72.48
65010;BME280;51556;50.002;22.014;2022-07-09T00:55:58;99734.64;;;17.24;72.67
65010;BME280;51556;50.002;22.014;2022-07-09T00:58:26;99734.27;;;17.24;72.30
65010;BME280;51556;50.002;22.014;2022-07-09T01:00:53;99736.20;;;17.29;72.19
65010;BME280;51556;50.002;22.014;2022-07-09T01:03:20;99732.82;;;17.28;72.17
65010;BME280;51556;50.002;22.014;2022-07-09T01:05:46;99729.45;;;17.28;72.06
65010;BME280;51556;50.002;22.014;2022-07-09T01:08:11;99727.81;;;17.29;71.93
65010;BME280;51556;50.002;22.014;2022-07-09T01:10:37;99725.91;;;17.28;71.84
65010;BME280;51556;50.002;22.014;2022-07-09T01:13:04;99723.79;;;17.28;71.87
65010;BME280;51556;50.002;22.014;2022-07-09T01:15:30;99714.20;;;17.24;71.66
65010;BME280;51556;50.002;22.014;2022-07-09T01:17:56;99711.48;;;17.20;71.79
65010;BME280;51556;50.002;22.014;2022-07-09T01:20:26;99712.77;;;17.20;71.70
65010;BME280;51556;50.002;22.014;2022-07-09T01:22:52;99712.81;;;17.27;71.68
65010;BME280;51556;50.002;22.014;2022-07-09T01:25:19;99709.95;;;17.30;71.39
65010;BME280;51556;50.002;22.014;2022-07-09T01:27:47;99712.58;;;17.28;71.58
65010;BME280;51556;50.002;22.014;2022-07-09T01:30:27;99712.65;;;17.22;71.61
65010;BME280;51556;50.002;22.014;2022-07-09T01:32:54;99715.01;;;17.22;71.56
65010;BME280;51556;50.002;22.014;2022-07-09T01:35:20;99714.33;;;17.25;71.62
65010;BME280;51556;50.002;22.014;2022-07-09T01:37:50;99719.19;;;17.27;71.60
65010;BME280;51556;50.002;22.014;2022-07-09T01:40:15;99717.73;;;17.20;71.81
65010;BME280;51556;50.002;22.014;2022-07-09T01:42:41;99720.77;;;17.16;71.76
65010;BME280;51556;50.002;22.014;2022-07-09T01:45:06;99715.10;;;17.16;72.02
65010;BME280;51556;50.002;22.014;2022-07-09T01:47:32;99713.10;;;17.13;71.91
65010;BME280;51556;50.002;22.014;2022-07-09T01:49:58;99707.11;;;17.16;71.70
65010;BME280;51556;50.002;22.014;2022-07-09T01:52:24;99702.20;;;17.18;71.57
65010;BME280;51556;50.002;22.014;2022-07-09T01:54:50;99702.72;;;17.18;71.72
65010;BME280;51556;50.002;22.014;2022-07-09T01:57:15;99706.55;;;17.16;71.66
65010;BME280;51556;50.002;22.014;2022-07-09T01:59:41;99707.80;;;17.12;71.77
65010;BME280;51556;50.002;22.014;2022-07-09T02:02:06;99705.73;;;16.99;72.21
65010;BME280;51556;50.002;22.014;2022-07-09T02:04:32;99707.86;;;16.92;71.98
65010;BME280;51556;50.002;22.014;2022-07-09T02:06:57;99708.91;;;16.92;71.92
65010;BME280;51556;50.002;22.014;2022-07-09T02:09:23;99708.98;;;16.95;71.85
65010;BME280;51556;50.002;22.014;2022-07-09T02:11:50;99702.20;;;16.92;71.75
65010;BME280;51556;50.002;22.014;2022-07-09T02:14:15;99702.30;;;16.89;71.60
65010;BME280;51556;50.002;22.014;2022-07-09T02:16:41;99699.34;;;16.88;71.65
65010;BME280;51556;50.002;22.014;2022-07-09T02:19:07;99700.96;;;16.79;71.39
65010;BME280;51556;50.002;22.014;2022-07-09T02:21:33;99700.05;;;16.72;71.35
65010;BME280;51556;50.002;22.014;2022-07-09T02:23:59;99699.85;;;16.73;71.23
65010;BME280;51556;50.002;22.014;2022-07-09T02:26:25;99698.36;;;16.70;71.30
65010;BME280;51556;50.002;22.014;2022-07-09T02:28:53;99696.01;;;16.68;71.11
65010;BME280;51556;50.002;22.014;2022-07-09T02:31:19;99691.38;;;16.64;71.28
65010;BME280;51556;50.002;22.014;2022-07-09T02:33:45;99695.72;;;16.49;71.38
65010;BME280;51556;50.002;22.014;2022-07-09T02:36:10;99695.83;;;16.47;71.16
65010;BME280;51556;50.002;22.014;2022-07-09T02:38:36;99696.94;;;16.42;71.37
65010;BME280;51556;50.002;22.014;2022-07-09T02:41:01;99694.70;;;16.40;71.31
65010;BME280;51556;50.002;22.014;2022-07-09T02:43:27;99689.94;;;16.39;71.24
65010;BME280;51556;50.002;22.014;2022-07-09T02:45:53;99690.71;;;16.42;71.30
65010;BME280;51556;50.002;22.014;2022-07-09T02:48:24;99684.52;;;16.45;71.16
65010;BME280;51556;50.002;22.014;2022-07-09T02:50:51;99678.30;;;16.49;70.80
65010;BME280;51556;50.002;22.014;2022-07-09T02:53:16;99684.88;;;16.45;70.91
65010;BME280;51556;50.002;22.014;2022-07-09T02:55:42;99686.23;;;16.39;71.37
65010;BME280;51556;50.002;22.014;2022-07-09T02:58:07;99685.88;;;16.31;71.16
65010;BME280;51556;50.002;22.014;2022-07-09T03:00:33;99686.52;;;16.29;71.26
65010;BME280;51556;50.002;22.014;2022-07-09T03:02:59;99679.48;;;16.27;71.44
65010;BME280;51556;50.002;22.014;2022-07-09T03:05:24;99680.11;;;16.21;71.24
65010;BME280;51556;50.002;22.014;2022-07-09T03:07:50;99678.04;;;16.24;71.31
65010;BME280;51556;50.002;22.014;2022-07-09T03:10:16;99678.69;;;16.25;71.20
65010;BME280;51556;50.002;22.014;2022-07-09T03:12:41;99681.05;;;16.24;71.12
65010;BME280;51556;50.002;22.014;2022-07-09T03:15:08;99684.73;;;16.21;71.34
65010;BME280;51556;50.002;22.014;2022-07-09T03:17:34;99682.52;;;16.19;71.14
65010;BME280;51556;50.002;22.014;2022-07-09T03:20:00;99684.28;;;16.19;71.30
65010;BME280;51556;50.002;22.014;2022-07-09T03:22:26;99682.91;;;16.18;71.10
65010;BME280;51556;50.002;22.014;2022-07-09T03:24:51;99685.41;;;16.17;71.25
65010;BME280;51556;50.002;22.014;2022-07-09T03:27:17;99688.10;;;16.17;71.30
65010;BME280;51556;50.002;22.014;2022-07-09T03:29:43;99687.45;;;16.15;71.22
65010;BME280;51556;50.002;22.014;2022-07-09T03:32:08;99688.14;;;16.16;71.18
65010;BME280;51556;50.002;22.014;2022-07-09T03:34:34;99687.63;;;16.16;71.14
65010;BME280;51556;50.002;22.014;2022-07-09T03:37:00;99687.36;;;16.13;71.26
65010;BME280;51556;50.002;22.014;2022-07-09T03:39:25;99691.08;;;16.14;71.21
65010;BME280;51556;50.002;22.014;2022-07-09T03:41:51;99686.80;;;16.05;71.45
65010;BME280;51556;50.002;22.014;2022-07-09T03:44:17;99687.02;;;16.04;71.33
65010;BME280;51556;50.002;22.014;2022-07-09T03:46:43;99683.64;;;16.00;71.46
65010;BME280;51556;50.002;22.014;2022-07-09T03:49:08;99683.52;;;15.98;71.46
65010;BME280;51556;50.002;22.014;2022-07-09T03:51:34;99685.27;;;15.99;71.93
65010;BME280;51556;50.002;22.014;2022-07-09T03:53:59;99691.09;;;16.00;71.84
65010;BME280;51556;50.002;22.014;2022-07-09T03:56:25;99691.20;;;16.02;71.59
65010;BME280;51556;50.002;22.014;2022-07-09T03:58:51;99697.64;;;16.05;71.79
65010;BME280;51556;50.002;22.014;2022-07-09T04:01:16;99704.20;;;16.10;71.63
65010;BME280;51556;50.002;22.014;2022-07-09T04:03:42;99703.59;;;16.12;71.66
65010;BME280;51556;50.002;22.014;2022-07-09T04:06:07;99705.34;;;16.13;71.68
65010;BME280;51556;50.002;22.014;2022-07-09T04:08:33;99704.98;;;16.12;71.68
65010;BME280;51556;50.002;22.014;2022-07-09T04:10:59;99709.70;;;16.10;71.99
65010;BME280;51556;50.002;22.014;2022-07-09T04:13:24;99710.54;;;16.07;71.71
65010;BME280;51556;50.002;22.014;2022-07-09T04:15:50;99712.73;;;16.14;72.10
65010;BME280;51556;50.002;22.014;2022-07-09T04:18:15;99710.80;;;16.18;71.66
65010;BME280;51556;50.002;22.014;2022-07-09T04:20:41;99708.66;;;16.22;71.62
65010;BME280;51556;50.002;22.014;2022-07-09T04:23:07;99715.44;;;16.25;71.32
65010;BME280;51556;50.002;22.014;2022-07-09T04:25:32;99710.81;;;16.26;71.46
65010;BME280;51556;50.002;22.014;2022-07-09T04:27:58;99711.06;;;16.28;71.35
65010;BME280;51556;50.002;22.014;2022-07-09T04:30:26;99714.10;;;16.31;71.31
65010;BME280;51556;50.002;22.014;2022-07-09T04:32:51;99717.29;;;16.35;71.32
65010;BME280;51556;50.002;22.014;2022-07-09T04:35:17;99720.33;;;16.39;71.29
65010;BME280;51556;50.002;22.014;2022-07-09T04:37:42;99721.14;;;16.45;71.34
65010;BME280;51556;50.002;22.014;2022-07-09T04:40:09;99721.16;;;16.52;71.26
65010;BME280;51556;50.002;22.014;2022-07-09T04:42:34;99722.37;;;16.57;71.12
65010;BME280;51556;50.002;22.014;2022-07-09T04:45:00;99722.98;;;16.60;70.92
65010;BME280;51556;50.002;22.014;2022-07-09T04:47:26;99728.23;;;16.61;70.94
65010;BME280;51556;50.002;22.014;2022-07-09T04:49:54;99728.42;;;16.66;70.83
65010;BME280;51556;50.002;22.014;2022-07-09T04:52:20;99723.40;;;16.71;70.44
65010;BME280;51556;50.002;22.014;2022-07-09T04:54:46;99728.15;;;16.76;70.52
65010;BME280;51556;50.002;22.014;2022-07-09T04:57:12;99728.23;;;16.78;70.41
65010;BME280;51556;50.002;22.014;2022-07-09T04:59:41;99730.38;;;16.86;70.36
65010;BME280;51556;50.002;22.014;2022-07-09T05:02:06;99728.91;;;16.95;70.23
65010;BME280;51556;50.002;22.014;2022-07-09T05:04:32;99731.89;;;17.03;69.96
65010;BME280;51556;50.002;22.014;2022-07-09T05:06:57;99735.97;;;17.11;69.67
65010;BME280;51556;50.002;22.014;2022-07-09T05:09:23;99734.04;;;17.14;69.53
65010;BME280;51556;50.002;22.014;2022-07-09T05:11:49;99734.66;;;17.20;69.42
65010;BME280;51556;50.002;22.014;2022-07-09T05:14:17;99733.64;;;17.26;69.24
65010;BME280;51556;50.002;22.014;2022-07-09T05:16:43;99728.12;;;17.30;68.99
65010;BME280;51556;50.002;22.014;2022-07-09T05:19:13;99734.01;;;17.34;68.96
65010;BME280;51556;50.002;22.014;2022-07-09T05:21:40;99734.71;;;17.30;68.54
65010;BME280;51556;50.002;22.014;2022-07-09T05:24:05;99731.52;;;17.19;68.45
65010;BME280;51556;50.002;22.014;2022-07-09T05:26:33;99728.73;;;16.98;68.77
65010;BME280;51556;50.002;22.014;2022-07-09T05:28:58;99722.08;;;16.96;69.00
65010;BME280;51556;50.002;22.014;2022-07-09T05:31:24;99720.58;;;17.02;69.32
65010;BME280;51556;50.002;22.014;2022-07-09T05:33:50;99726.59;;;17.06;68.99
65010;BME280;51556;50.002;22.014;2022-07-09T05:36:17;99729.77;;;17.14;69.33
65010;BME280;51556;50.002;22.014;2022-07-09T05:38:43;99728.29;;;17.23;69.08
65010;BME280;51556;50.002;22.014;2022-07-09T05:41:09;99730.84;;;17.25;68.73
65010;BME280;51556;50.002;22.014;2022-07-09T05:43:36;99731.41;;;17.28;68.36
65010;BME280;51556;50.002;22.014;2022-07-09T05:46:02;99734.52;;;17.30;68.44
65010;BME280;51556;50.002;22.014;2022-07-09T05:48:28;99728.35;;;17.37;68.20
65010;BME280;51556;50.002;22.014;2022-07-09T05:50:53;99731.65;;;17.34;68.00
65010;BME280;51556;50.002;22.014;2022-07-09T05:53:24;99728.42;;;17.31;67.78
65010;BME280;51556;50.002;22.014;2022-07-09T05:55:53;99725.71;;;17.32;67.88
65010;BME280;51556;50.002;22.014;2022-07-09T05:58:20;99719.20;;;17.38;68.25
65010;BME280;51556;50.002;22.014;2022-07-09T06:00:46;99719.85;;;17.51;68.03
65010;BME280;51556;50.002;22.014;2022-07-09T06:03:11;99720.91;;;17.62;67.70
65010;BME280;51556;50.002;22.014;2022-07-09T06:05:37;99717.25;;;17.75;67.51
65010;BME280;51556;50.002;22.014;2022-07-09T06:08:05;99716.44;;;17.84;66.85
65010;BME280;51556;50.002;22.014;2022-07-09T06:10:30;99718.86;;;17.93;67.05
65010;BME280;51556;50.002;22.014;2022-07-09T06:12:56;99716.42;;;18.02;66.58
65010;BME280;51556;50.002;22.014;2022-07-09T06:15:21;99719.36;;;18.04;66.09
65010;BME280;51556;50.002;22.014;2022-07-09T06:17:47;99717.56;;;18.08;65.87
65010;BME280;51556;50.002;22.014;2022-07-09T06:20:15;99717.71;;;18.13;65.51
65010;BME280;51556;50.002;22.014;2022-07-09T06:22:41;99717.13;;;18.13;64.96
65010;BME280;51556;50.002;22.014;2022-07-09T06:25:07;99714.52;;;18.13;64.88
65010;BME280;51556;50.002;22.014;2022-07-09T06:27:34;99711.96;;;18.17;64.76
65010;BME280;51556;50.002;22.014;2022-07-09T06:30:00;99708.79;;;18.23;64.58
65010;BME280;51556;50.002;22.014;2022-07-09T06:32:26;99705.14;;;18.31;64.63
65010;BME280;51556;50.002;22.014;2022-07-09T06:34:51;99704.98;;;18.41;64.71
65010;BME280;51556;50.002;22.014;2022-07-09T06:37:17;99703.06;;;18.47;64.43
65010;BME280;51556;50.002;22.014;2022-07-09T06:39:43;99703.98;;;18.50;64.24
65010;BME280;51556;50.002;22.014;2022-07-09T06:42:13;99697.09;;;18.53;64.23
65010;BME280;51556;50.002;22.014;2022-07-09T06:44:40;99694.08;;;18.59;64.03
65010;BME280;51556;50.002;22.014;2022-07-09T06:47:06;99693.03;;;18.65;63.54
65010;BME280;51556;50.002;22.014;2022-07-09T06:49:32;99690.05;;;18.71;63.75
65010;BME280;51556;50.002;22.014;2022-07-09T06:51:58;99691.48;;;18.81;63.56
65010;BME280;51556;50.002;22.014;2022-07-09T06:54:24;99688.95;;;18.88;62.75
65010;BME280;51556;50.002;22.014;2022-07-09T06:56:50;99690.95;;;18.97;62.47
65010;BME280;51556;50.002;22.014;2022-07-09T06:59:16;99692.88;;;19.04;62.25
65010;BME280;51556;50.002;22.014;2022-07-09T07:01:44;99689.16;;;19.10;61.54
65010;BME280;51556;50.002;22.014;2022-07-09T07:04:09;99685.98;;;19.16;61.00
65010;BME280;51556;50.002;22.014;2022-07-09T07:06:38;99679.83;;;19.15;61.27
65010;BME280;51556;50.002;22.014;2022-07-09T07:09:03;99677.49;;;19.24;61.71
65010;BME280;51556;50.002;22.014;2022-07-09T07:11:29;99671.48;;;19.39;61.69
65010;BME280;51556;50.002;22.014;2022-07-09T07:13:54;99669.09;;;19.50;61.22
65010;BME280;51556;50.002;22.014;2022-07-09T07:16:20;99671.16;;;19.58;60.61
65010;BME280;51556;50.002;22.014;2022-07-09T07:18:46;99673.06;;;19.65;60.12
65010;BME280;51556;50.002;22.014;2022-07-09T07:21:11;99668.69;;;19.72;60.38
65010;BME280;51556;50.002;22.014;2022-07-09T07:23:37;99669.30;;;19.80;60.04
65010;BME280;51556;50.002;22.014;2022-07-09T07:26:05;99669.40;;;19.85;60.07
65010;BME280;51556;50.002;22.014;2022-07-09T07:28:31;99671.41;;;19.87;59.81
65010;BME280;51556;50.002;22.014;2022-07-09T07:30:56;99674.83;;;19.89;60.20
65010;BME280;51556;50.002;22.014;2022-07-09T07:33:22;99675.52;;;19.90;59.45
65010;BME280;51556;50.002;22.014;2022-07-09T07:35:48;99674.41;;;19.84;59.50
65010;BME280;51556;50.002;22.014;2022-07-09T07:38:15;99676.10;;;19.86;59.56
65010;BME280;51556;50.002;22.014;2022-07-09T07:40:40;99680.54;;;19.96;59.09
65010;BME280;51556;50.002;22.014;2022-07-09T07:43:09;99685.08;;;20.03;58.44
65010;BME280;51556;50.002;22.014;2022-07-09T07:45:36;99680.66;;;19.94;59.28
65010;BME280;51556;50.002;22.014;2022-07-09T07:48:02;99681.60;;;19.87;59.62
65010;BME280;51556;50.002;22.014;2022-07-09T07:50:28;99684.81;;;19.71;59.67
65010;BME280;51556;50.002;22.014;2022-07-09T07:52:53;99684.23;;;19.41;60.42
65010;BME280;51556;50.002;22.014;2022-07-09T07:55:19;99682.34;;;19.33;61.10
65010;BME280;51556;50.002;22.014;2022-07-09T07:57:44;99680.02;;;19.17;61.08
65010;BME280;51556;50.002;22.014;2022-07-09T08:00:10;99678.52;;;19.05;61.80
65010;BME280;51556;50.002;22.014;2022-07-09T08:02:36;99682.88;;;19.01;61.61
65010;BME280;51556;50.002;22.014;2022-07-09T08:05:02;99678.45;;;18.91;61.94
65010;BME280;51556;50.002;22.014;2022-07-09T08:07:27;99679.15;;;18.91;62.23
65010;BME280;51556;50.002;22.014;2022-07-09T08:09:53;99676.72;;;18.96;61.94
65010;BME280;51556;50.002;22.014;2022-07-09T08:12:18;99678.87;;;19.03;61.83
65010;BME280;51556;50.002;22.014;2022-07-09T08:14:44;99674.95;;;19.06;61.69
65010;BME280;51556;50.002;22.014;2022-07-09T08:17:10;99669.98;;;19.09;61.70
65010;BME280;51556;50.002;22.014;2022-07-09T08:19:36;99669.80;;;19.15;61.30
65010;BME280;51556;50.002;22.014;2022-07-09T08:22:04;99668.20;;;19.15;61.09
65010;BME280;51556;50.002;22.014;2022-07-09T08:24:30;99663.57;;;19.12;60.79
65010;BME280;51556;50.002;22.014;2022-07-09T08:26:56;99662.30;;;19.15;61.11
65010;BME280;51556;50.002;22.014;2022-07-09T08:29:24;99655.33;;;19.22;61.04
65010;BME280;51556;50.002;22.014;2022-07-09T08:31:50;99658.75;;;19.37;60.53
65010;BME280;51556;50.002;22.014;2022-07-09T08:34:16;99653.41;;;19.49;59.08
65010;BME280;51556;50.002;22.014;2022-07-09T08:36:42;99654.28;;;19.53;58.40
65010;BME280;51556;50.002;22.014;2022-07-09T08:39:07;99652.20;;;19.58;58.64
65010;BME280;51556;50.002;22.014;2022-07-09T08:41:33;99654.86;;;19.67;58.91
65010;BME280;51556;50.002;22.014;2022-07-09T08:44:00;99656.53;;;19.76;57.52
65010;BME280;51556;50.002;22.014;2022-07-09T08:46:27;99653.75;;;19.77;57.20
65010;BME280;51556;50.002;22.014;2022-07-09T08:48:54;99652.55;;;19.79;57.19
65010;BME280;51556;50.002;22.014;2022-07-09T08:51:21;99651.02;;;19.84;57.53
65010;BME280;51556;50.002;22.014;2022-07-09T08:53:47;99649.36;;;19.85;57.08
65010;BME280;51556;50.002;22.014;2022-07-09T08:56:13;99647.31;;;19.98;57.45
65010;BME280;51556;50.002;22.014;2022-07-09T08:58:39;99647.58;;;20.12;57.11
65010;BME280;51556;50.002;22.014;2022-07-09T09:01:04;99641.83;;;20.21;56.82
65010;BME280;51556;50.002;22.014;2022-07-09T09:03:32;99639.68;;;20.30;56.88
65010;BME280;51556;50.002;22.014;2022-07-09T09:08:27;99634.84;;;20.54;56.32
65010;BME280;51556;50.002;22.014;2022-07-09T09:10:53;99631.45;;;20.62;56.03
65010;BME280;51556;50.002;22.014;2022-07-09T09:13:19;99632.10;;;20.69;55.93
65010;BME280;51556;50.002;22.014;2022-07-09T09:15:45;99624.70;;;20.81;56.12
65010;BME280;51556;50.002;22.014;2022-07-09T09:18:11;99624.66;;;20.96;55.20
65010;BME280;51556;50.002;22.014;2022-07-09T09:20:38;99623.73;;;21.08;54.84
65010;BME280;51556;50.002;22.014;2022-07-09T09:23:15;99619.51;;;21.20;54.68
65010;BME280;51556;50.002;22.014;2022-07-09T09:25:41;99615.32;;;21.38;54.99
65010;BME280;51556;50.002;22.014;2022-07-09T09:28:07;99613.85;;;21.50;54.30
65010;BME280;51556;50.002;22.014;2022-07-09T09:30:41;99611.66;;;21.63;54.49
65010;BME280;51556;50.002;22.014;2022-07-09T09:33:07;99607.67;;;21.77;53.92
65010;BME280;51556;50.002;22.014;2022-07-09T09:35:34;99607.41;;;21.84;51.47
65010;BME280;51556;50.002;22.014;2022-07-09T09:38:01;99602.73;;;21.84;50.80
65010;BME280;51556;50.002;22.014;2022-07-09T09:40:27;99596.61;;;21.79;50.56
65010;BME280;51556;50.002;22.014;2022-07-09T09:42:53;99594.17;;;21.84;51.63
65010;BME280;51556;50.002;22.014;2022-07-09T09:45:19;99591.25;;;21.89;51.38
65010;BME280;51556;50.002;22.014;2022-07-09T09:47:48;99597.22;;;21.96;50.66
65010;BME280;51556;50.002;22.014;2022-07-09T09:50:17;99589.23;;;21.95;50.36
65010;BME280;51556;50.002;22.014;2022-07-09T09:52:45;99587.48;;;21.97;50.56
65010;BME280;51556;50.002;22.014;2022-07-09T09:55:13;99581.82;;;22.02;51.45
65010;BME280;51556;50.002;22.014;2022-07-09T09:57:40;99584.83;;;22.10;51.14
65010;BME280;51556;50.002;22.014;2022-07-09T10:00:11;99580.55;;;22.18;51.24
65010;BME280;51556;50.002;22.014;2022-07-09T10:02:38;99581.52;;;22.27;50.72
65010;BME280;51556;50.002;22.014;2022-07-09T10:05:07;99578.83;;;22.37;50.43
65010;BME280;51556;50.002;22.014;2022-07-09T10:07:33;99577.17;;;22.37;49.68
65010;BME280;51556;50.002;22.014;2022-07-09T10:09:59;99575.77;;;22.44;49.74
65010;BME280;51556;50.002;22.014;2022-07-09T10:12:30;99574.40;;;22.49;48.44
65010;BME280;51556;50.002;22.014;2022-07-09T10:14:59;99565.73;;;22.57;49.30
65010;BME280;51556;50.002;22.014;2022-07-09T10:17:39;99568.79;;;22.64;48.52
65010;BME280;51556;50.002;22.014;2022-07-09T10:20:08;99566.09;;;22.62;47.61
65010;BME280;51556;50.002;22.014;2022-07-09T10:22:44;99561.22;;;22.52;47.19
65010;BME280;51556;50.002;22.014;2022-07-09T10:25:27;99556.66;;;22.41;47.72
65010;BME280;51556;50.002;22.014;2022-07-09T10:27:53;99558.14;;;22.40;48.32
65010;BME280;51556;50.002;22.014;2022-07-09T10:30:29;99554.16;;;22.43;48.21
65010;BME280;51556;50.002;22.014;2022-07-09T10:33:06;99558.92;;;22.39;47.25
65010;BME280;51556;50.002;22.014;2022-07-09T10:36:08;99558.38;;;22.37;48.03
65010;BME280;51556;50.002;22.014;2022-07-09T10:38:36;99548.08;;;22.45;47.90
65010;BME280;51556;50.002;22.014;2022-07-09T10:41:04;99552.54;;;22.56;48.62
65010;BME280;51556;50.002;22.014;2022-07-09T10:43:48;99548.83;;;22.70;47.29
65010;BME280;51556;50.002;22.014;2022-07-09T10:46:14;99546.63;;;22.73;46.99
65010;BME280;51556;50.002;22.014;2022-07-09T10:48:41;99545.20;;;22.81;47.35
65010;BME280;51556;50.002;22.014;2022-07-09T10:51:07;99541.05;;;22.91;47.61
65010;BME280;51556;50.002;22.014;2022-07-09T10:53:32;99547.94;;;22.87;46.09
65010;BME280;51556;50.002;22.014;2022-07-09T10:55:59;99542.07;;;22.84;46.50
65010;BME280;51556;50.002;22.014;2022-07-09T10:58:25;99537.23;;;22.91;46.61
65010;BME280;51556;50.002;22.014;2022-07-09T11:01:01;99536.26;;;22.92;45.47
65010;BME280;51556;50.002;22.014;2022-07-09T11:03:30;99538.10;;;22.79;45.04
65010;BME280;51556;50.002;22.014;2022-07-09T11:05:57;99534.96;;;22.73;45.49
65010;BME280;51556;50.002;22.014;2022-07-09T11:08:23;99535.05;;;22.64;46.49
65010;BME280;51556;50.002;22.014;2022-07-09T11:10:49;99534.48;;;22.60;46.86
65010;BME280;51556;50.002;22.014;2022-07-09T11:13:14;99536.52;;;22.59;46.81
65010;BME280;51556;50.002;22.014;2022-07-09T11:15:40;99531.61;;;22.55;46.60
65010;BME280;51556;50.002;22.014;2022-07-09T11:20:43;99536.06;;;22.25;46.88
65010;BME280;51556;50.002;22.014;2022-07-09T11:23:14;99536.15;;;21.80;47.44
65010;BME280;51556;50.002;22.014;2022-07-09T11:25:40;99535.67;;;21.64;48.15
65010;BME280;51556;50.002;22.014;2022-07-09T11:28:06;99537.64;;;21.58;48.67
65010;BME280;51556;50.002;22.014;2022-07-09T11:30:33;99534.00;;;21.57;48.85
65010;BME280;51556;50.002;22.014;2022-07-09T11:32:59;99537.95;;;21.52;48.73
65010;BME280;51556;50.002;22.014;2022-07-09T11:35:28;99527.26;;;21.38;49.06
65010;BME280;51556;50.002;22.014;2022-07-09T11:37:56;99524.83;;;21.42;49.33
65010;BME280;51556;50.002;22.014;2022-07-09T11:40:22;99522.39;;;21.53;49.53
65010;BME280;51556;50.002;22.014;2022-07-09T11:42:48;99512.01;;;21.72;49.42
65010;BME280;51556;50.002;22.014;2022-07-09T11:45:15;99508.10;;;21.94;49.16
65010;BME280;51556;50.002;22.014;2022-07-09T11:47:40;99496.14;;;22.12;49.34
65010;BME280;51556;50.002;22.014;2022-07-09T11:50:10;99492.27;;;22.36;47.95
65010;BME280;51556;50.002;22.014;2022-07-09T11:52:42;99497.52;;;22.57;48.06
65010;BME280;51556;50.002;22.014;2022-07-09T11:55:11;99488.48;;;22.70;46.29
65010;BME280;51556;50.002;22.014;2022-07-09T11:57:37;99494.56;;;22.71;45.87
65010;BME280;51556;50.002;22.014;2022-07-09T12:00:11;99494.69;;;22.69;44.99
65010;BME280;51556;50.002;22.014;2022-07-09T12:02:45;99491.47;;;22.57;44.70
65010;BME280;51556;50.002;22.014;2022-07-09T12:05:11;99485.85;;;22.55;45.04
65010;BME280;51556;50.002;22.014;2022-07-09T12:07:37;99484.77;;;22.50;45.18
65010;BME280;51556;50.002;22.014;2022-07-09T12:10:04;99481.03;;;22.40;45.20
65010;BME280;51556;50.002;22.014;2022-07-09T12:12:31;99482.36;;;22.39;46.02
65010;BME280;51556;50.002;22.014;2022-07-09T12:14:57;99477.10;;;22.50;45.47
65010;BME280;51556;50.002;22.014;2022-07-09T12:17:27;99473.17;;;22.49;43.51
65010;BME280;51556;50.002;22.014;2022-07-09T12:19:54;99475.19;;;22.66;43.20
65010;BME280;51556;50.002;22.014;2022-07-09T12:22:21;99470.66;;;22.86;42.06
65010;BME280;51556;50.002;22.014;2022-07-09T12:24:47;99461.02;;;23.12;42.97
65010;BME280;51556;50.002;22.014;2022-07-09T12:27:13;99453.17;;;23.44;42.04
65010;BME280;51556;50.002;22.014;2022-07-09T12:29:38;99448.46;;;23.70;42.10
65010;BME280;51556;50.002;22.014;2022-07-09T12:32:04;99447.23;;;23.85;40.88
65010;BME280;51556;50.002;22.014;2022-07-09T12:34:30;99446.77;;;23.93;40.74
65010;BME280;51556;50.002;22.014;2022-07-09T12:36:56;99445.80;;;23.99;40.57
65010;BME280;51556;50.002;22.014;2022-07-09T12:39:21;99448.05;;;23.98;39.88
65010;BME280;51556;50.002;22.014;2022-07-09T12:41:47;99442.98;;;23.98;40.46
65010;BME280;51556;50.002;22.014;2022-07-09T12:44:12;99440.83;;;24.12;40.44
65010;BME280;51556;50.002;22.014;2022-07-09T12:46:38;99430.92;;;24.27;39.99
65010;BME280;51556;50.002;22.014;2022-07-09T12:49:04;99419.84;;;24.45;39.70
65010;BME280;51556;50.002;22.014;2022-07-09T12:51:29;99425.21;;;24.62;39.97